sensor_id;sensor_type;location;lat;lon;timestamp;pressure;altitude;pressure_sealevel;temperature
49557;BMP280;35462;45.048;7.666;2023-03-26T00:08:49;98416.53;;;17.86
49557;BMP280;35462;45.048;7.666;2023-03-26T00:23:55;98408.53;;;17.62
49557;BMP280;35462;45.048;7.666;2023-03-26T00:39:01;98387.03;;;17.71
49557;BMP280;35462;45.048;7.666;2023-03-26T00:54:08;98362.59;;;17.55
49557;BMP280;35462;45.048;7.666;2023-03-26T01:09:16;98350.50;;;17.45
49557;BMP280;35462;45.048;7.666;2023-03-26T01:24:21;98312.97;;;17.31
49557;BMP280;35462;45.048;7.666;2023-03-26T01:54:36;98306.44;;;17.08
49557;BMP280;35462;45.048;7.666;2023-03-26T02:09:45;98313.00;;;16.84
49557;BMP280;35462;45.048;7.666;2023-03-26T02:24:50;98299.13;;;16.62
49557;BMP280;35462;45.048;7.666;2023-03-26T02:39:55;98271.47;;;16.33
49557;BMP280;35462;45.048;7.666;2023-03-26T02:55:07;98293.22;;;16.17
49557;BMP280;35462;45.048;7.666;2023-03-26T03:10:13;98264.00;;;16.13
49557;BMP280;35462;45.048;7.666;2023-03-26T03:25:26;98273.66;;;16.02
49557;BMP280;35462;45.048;7.666;2023-03-26T03:40:32;98289.28;;;15.95
49557;BMP280;35462;45.048;7.666;2023-03-26T03:55:36;98272.25;;;15.83
49557;BMP280;35462;45.048;7.666;2023-03-26T04:10:42;98274.34;;;15.70
49557;BMP280;35462;45.048;7.666;2023-03-26T04:25:51;98271.06;;;15.66
49557;BMP280;35462;45.048;7.666;2023-03-26T04:40:59;98203.75;;;15.53
49557;BMP280;35462;45.048;7.666;2023-03-26T05:11:36;98266.50;;;15.31
49557;BMP280;35462;45.048;7.666;2023-03-26T05:26:40;98285.13;;;15.22
49557;BMP280;35462;45.048;7.666;2023-03-26T05:41:45;98268.25;;;15.16
49557;BMP280;35462;45.048;7.666;2023-03-26T05:56:49;98262.63;;;15.14
49557;BMP280;35462;45.048;7.666;2023-03-26T06:11:56;98256.44;;;15.26
49557;BMP280;35462;45.048;7.666;2023-03-26T06:27:01;98213.56;;;15.56
49557;BMP280;35462;45.048;7.666;2023-03-26T06:42:08;98207.44;;;15.74
49557;BMP280;35462;45.048;7.666;2023-03-26T06:57:16;98226.69;;;15.87
49557;BMP280;35462;45.048;7.666;2023-03-26T07:12:23;98248.16;;;16.01
49557;BMP280;35462;45.048;7.666;2023-03-26T07:27:35;98225.94;;;17.35
49557;BMP280;35462;45.048;7.666;2023-03-26T08:28:33;98161.16;;;18.48
49557;BMP280;35462;45.048;7.666;2023-03-26T09:59:39;98050.63;;;19.62
49557;BMP280;35462;45.048;7.666;2023-03-26T10:45:07;98025.88;;;20.00
49557;BMP280;35462;45.048;7.666;2023-03-26T11:30:46;98039.19;;;20.52
49557;BMP280;35462;45.048;7.666;2023-03-26T11:45:51;98006.63;;;20.18
49557;BMP280;35462;45.048;7.666;2023-03-26T12:00:56;97970.84;;;19.84
49557;BMP280;35462;45.048;7.666;2023-03-26T12:16:08;97946.44;;;19.93
49557;BMP280;35462;45.048;7.666;2023-03-26T12:31:13;97924.50;;;19.31
49557;BMP280;35462;45.048;7.666;2023-03-26T13:46:54;97876.06;;;18.62
49557;BMP280;35462;45.048;7.666;2023-03-26T14:02:07;97812.72;;;18.34
49557;BMP280;35462;45.048;7.666;2023-03-26T14:47:42;97681.88;;;19.02
49557;BMP280;35462;45.048;7.666;2023-03-26T16:03:53;97666.47;;;18.86
49557;BMP280;35462;45.048;7.666;2023-03-26T16:34:28;97683.44;;;18.55
49557;BMP280;35462;45.048;7.666;2023-03-26T17:04:56;97667.53;;;18.41
49557;BMP280;35462;45.048;7.666;2023-03-26T18:05:54;97677.97;;;17.25
49557;BMP280;35462;45.048;7.666;2023-03-26T18:21:03;97687.41;;;17.20
49557;BMP280;35462;45.048;7.666;2023-03-26T18:36:10;97667.13;;;17.14
49557;BMP280;35462;45.048;7.666;2023-03-26T18:51:14;97675.38;;;17.10
49557;BMP280;35462;45.048;7.666;2023-03-26T19:06:25;97668.94;;;17.02
49557;BMP280;35462;45.048;7.666;2023-03-26T19:21:31;97641.09;;;16.89
49557;BMP280;35462;45.048;7.666;2023-03-26T19:52:04;97597.41;;;16.97
49557;BMP280;35462;45.048;7.666;2023-03-26T20:07:18;97603.28;;;17.01
49557;BMP280;35462;45.048;7.666;2023-03-26T20:22:24;97590.88;;;16.98
49557;BMP280;35462;45.048;7.666;2023-03-26T20:37:29;97578.59;;;16.86
49557;BMP280;35462;45.048;7.666;2023-03-26T20:52:33;97567.78;;;16.76
49557;BMP280;35462;45.048;7.666;2023-03-26T21:07:37;97577.66;;;16.64
49557;BMP280;35462;45.048;7.666;2023-03-26T21:22:54;97564.00;;;16.62
49557;BMP280;35462;45.048;7.666;2023-03-26T21:38:03;97546.34;;;16.45
49557;BMP280;35462;45.048;7.666;2023-03-26T21:53:10;97514.75;;;15.98
49557;BMP280;35462;45.048;7.666;2023-03-26T22:08:20;97477.72;;;16.11
49557;BMP280;35462;45.048;7.666;2023-03-26T22:23:29;97485.56;;;15.95
49557;BMP280;35462;45.048;7.666;2023-03-26T22:38:36;97475.28;;;15.88
49557;BMP280;35462;45.048;7.666;2023-03-26T22:53:40;97506.78;;;16.04
49557;BMP280;35462;45.048;7.666;2023-03-26T23:08:44;97517.75;;;16.06
49557;BMP280;35462;45.048;7.666;2023-03-26T23:23:49;97515.47;;;15.99
49557;BMP280;35462;45.048;7.666;2023-03-26T23:38:54;97537.88;;;15.87
49557;BMP280;35462;45.048;7.666;2023-03-26T23:53:59;97565.31;;;15.53
